sensor_id;sensor_type;location;lat;lon;timestamp;P1;durP1;ratioP1;P2;durP2;ratioP2
38123;SDS011;23934;47.998;9.832;2023-05-10T00:01:24;2.22;;;1.25;;
38123;SDS011;23934;47.998;9.832;2023-05-10T00:03:50;1.90;;;1.15;;
38123;SDS011;23934;47.998;9.832;2023-05-10T00:06:16;1.92;;;1.10;;
38123;SDS011;23934;47.998;9.832;2023-05-10T00:08:42;1.35;;;0.90;;
38123;SDS011;23934;47.998;9.832;2023-05-10T00:11:08;1.00;;;0.73;;
38123;SDS011;23934;47.998;9.832;2023-05-10T00:13:34;2.63;;;1.00;;
38123;SDS011;23934;47.998;9.832;2023-05-10T00:16:00;3.13;;;0.98;;
38123;SDS011;23934;47.998;9.832;2023-05-10T00:18:26;6.10;;;1.15;;
38123;SDS011;23934;47.998;9.832;2023-05-10T00:20:52;3.85;;;1.98;;
38123;SDS011;23934;47.998;9.832;2023-05-10T00:23:18;3.90;;;1.50;;
38123;SDS011;23934;47.998;9.832;2023-05-10T00:25:44;2.85;;;1.52;;
38123;SDS011;23934;47.998;9.832;2023-05-10T00:28:10;6.75;;;2.88;;
38123;SDS011;23934;47.998;9.832;2023-05-10T00:30:36;2.13;;;1.30;;
38123;SDS011;23934;47.998;9.832;2023-05-10T00:33:02;2.15;;;0.90;;
38123;SDS011;23934;47.998;9.832;2023-05-10T00:35:28;2.17;;;1.30;;
38123;SDS011;23934;47.998;9.832;2023-05-10T00:37:54;5.85;;;1.73;;
38123;SDS011;23934;47.998;9.832;2023-05-10T00:40:20;2.00;;;1.13;;
38123;SDS011;23934;47.998;9.832;2023-05-10T00:42:46;2.20;;;1.20;;
38123;SDS011;23934;47.998;9.832;2023-05-10T00:45:11;2.65;;;1.50;;
38123;SDS011;23934;47.998;9.832;2023-05-10T00:47:37;1.52;;;1.08;;
38123;SDS011;23934;47.998;9.832;2023-05-10T00:50:03;2.47;;;1.17;;
38123;SDS011;23934;47.998;9.832;2023-05-10T00:52:30;1.77;;;1.20;;
38123;SDS011;23934;47.998;9.832;2023-05-10T00:54:56;2.38;;;1.33;;
38123;SDS011;23934;47.998;9.832;2023-05-10T00:57:22;1.55;;;1.00;;
38123;SDS011;23934;47.998;9.832;2023-05-10T00:59:48;2.00;;;1.38;;
38123;SDS011;23934;47.998;9.832;2023-05-10T01:02:14;2.58;;;1.30;;
38123;SDS011;23934;47.998;9.832;2023-05-10T01:04:40;4.95;;;1.75;;
38123;SDS011;23934;47.998;9.832;2023-05-10T01:07:06;1.73;;;1.10;;
38123;SDS011;23934;47.998;9.832;2023-05-10T01:09:32;3.08;;;1.50;;
38123;SDS011;23934;47.998;9.832;2023-05-10T01:11:59;2.42;;;1.35;;
38123;SDS011;23934;47.998;9.832;2023-05-10T01:14:26;6.75;;;1.65;;
38123;SDS011;23934;47.998;9.832;2023-05-10T01:16:52;2.00;;;1.33;;
38123;SDS011;23934;47.998;9.832;2023-05-10T01:19:19;2.50;;;1.42;;
38123;SDS011;23934;47.998;9.832;2023-05-10T01:35:36;2.83;;;1.25;;
38123;SDS011;23934;47.998;9.832;2023-05-10T01:38:12;3.38;;;1.85;;
38123;SDS011;23934;47.998;9.832;2023-05-10T01:41:01;2.88;;;1.35;;
38123;SDS011;23934;47.998;9.832;2023-05-10T01:43:32;1.58;;;1.10;;
38123;SDS011;23934;47.998;9.832;2023-05-10T01:46:09;2.22;;;1.33;;
38123;SDS011;23934;47.998;9.832;2023-05-10T01:48:40;2.28;;;1.42;;
38123;SDS011;23934;47.998;9.832;2023-05-10T01:51:11;2.35;;;1.50;;
38123;SDS011;23934;47.998;9.832;2023-05-10T01:53:38;9.05;;;1.42;;
38123;SDS011;23934;47.998;9.832;2023-05-10T01:56:04;1.45;;;1.00;;
38123;SDS011;23934;47.998;9.832;2023-05-10T01:58:31;2.17;;;1.33;;
38123;SDS011;23934;47.998;9.832;2023-05-10T02:00:59;2.80;;;1.15;;
38123;SDS011;23934;47.998;9.832;2023-05-10T02:03:26;1.33;;;1.00;;
38123;SDS011;23934;47.998;9.832;2023-05-10T02:05:54;1.00;;;0.70;;
38123;SDS011;23934;47.998;9.832;2023-05-10T02:08:21;1.48;;;0.80;;
38123;SDS011;23934;47.998;9.832;2023-05-10T02:10:47;1.40;;;0.77;;
38123;SDS011;23934;47.998;9.832;2023-05-10T02:13:14;3.40;;;0.93;;
38123;SDS011;23934;47.998;9.832;2023-05-10T02:15:41;2.30;;;1.20;;
38123;SDS011;23934;47.998;9.832;2023-05-10T02:18:09;2.47;;;0.93;;
38123;SDS011;23934;47.998;9.832;2023-05-10T02:20:36;0.98;;;0.63;;
38123;SDS011;23934;47.998;9.832;2023-05-10T02:23:03;4.13;;;1.13;;
38123;SDS011;23934;47.998;9.832;2023-05-10T02:25:29;2.38;;;1.13;;
38123;SDS011;23934;47.998;9.832;2023-05-10T02:27:56;2.78;;;1.33;;
38123;SDS011;23934;47.998;9.832;2023-05-10T02:30:23;2.22;;;1.30;;
38123;SDS011;23934;47.998;9.832;2023-05-10T02:32:49;1.80;;;1.00;;
38123;SDS011;23934;47.998;9.832;2023-05-10T02:35:16;3.92;;;0.90;;
38123;SDS011;23934;47.998;9.832;2023-05-10T02:37:43;1.20;;;1.00;;
38123;SDS011;23934;47.998;9.832;2023-05-10T02:40:09;1.75;;;1.02;;
38123;SDS011;23934;47.998;9.832;2023-05-10T02:42:36;1.38;;;0.93;;
38123;SDS011;23934;47.998;9.832;2023-05-10T02:45:05;2.83;;;1.00;;
38123;SDS011;23934;47.998;9.832;2023-05-10T02:47:33;1.30;;;0.90;;
38123;SDS011;23934;47.998;9.832;2023-05-10T02:49:59;1.58;;;0.90;;
38123;SDS011;23934;47.998;9.832;2023-05-10T02:52:25;1.70;;;0.90;;
38123;SDS011;23934;47.998;9.832;2023-05-10T02:54:54;1.50;;;0.80;;
38123;SDS011;23934;47.998;9.832;2023-05-10T02:57:27;3.63;;;0.60;;
38123;SDS011;23934;47.998;9.832;2023-05-10T02:59:54;5.25;;;0.85;;
38123;SDS011;23934;47.998;9.832;2023-05-10T03:02:20;1.98;;;0.90;;
38123;SDS011;23934;47.998;9.832;2023-05-10T03:04:46;1.65;;;1.13;;
38123;SDS011;23934;47.998;9.832;2023-05-10T03:07:12;1.70;;;1.00;;
38123;SDS011;23934;47.998;9.832;2023-05-10T03:09:38;2.03;;;0.90;;
38123;SDS011;23934;47.998;9.832;2023-05-10T03:14:34;1.75;;;1.00;;
38123;SDS011;23934;47.998;9.832;2023-05-10T03:17:15;2.95;;;1.00;;
38123;SDS011;23934;47.998;9.832;2023-05-10T03:19:47;2.55;;;1.10;;
38123;SDS011;23934;47.998;9.832;2023-05-10T03:22:20;2.25;;;1.25;;
38123;SDS011;23934;47.998;9.832;2023-05-10T03:24:47;5.65;;;1.58;;
38123;SDS011;23934;47.998;9.832;2023-05-10T03:27:13;2.17;;;1.20;;
38123;SDS011;23934;47.998;9.832;2023-05-10T03:29:40;3.30;;;1.10;;
38123;SDS011;23934;47.998;9.832;2023-05-10T03:32:07;1.60;;;0.85;;
38123;SDS011;23934;47.998;9.832;2023-05-10T03:34:33;2.05;;;1.05;;
38123;SDS011;23934;47.998;9.832;2023-05-10T03:36:59;2.20;;;1.10;;
38123;SDS011;23934;47.998;9.832;2023-05-10T03:39:25;2.25;;;1.17;;
38123;SDS011;23934;47.998;9.832;2023-05-10T03:41:51;2.33;;;1.17;;
38123;SDS011;23934;47.998;9.832;2023-05-10T03:44:17;1.92;;;1.10;;
38123;SDS011;23934;47.998;9.832;2023-05-10T03:46:43;2.03;;;1.13;;
38123;SDS011;23934;47.998;9.832;2023-05-10T03:49:09;2.08;;;1.27;;
38123;SDS011;23934;47.998;9.832;2023-05-10T03:51:35;3.65;;;1.33;;
38123;SDS011;23934;47.998;9.832;2023-05-10T03:54:01;5.90;;;1.20;;
38123;SDS011;23934;47.998;9.832;2023-05-10T03:56:27;1.90;;;1.25;;
38123;SDS011;23934;47.998;9.832;2023-05-10T03:58:53;4.68;;;1.08;;
38123;SDS011;23934;47.998;9.832;2023-05-10T04:01:18;2.90;;;1.38;;
38123;SDS011;23934;47.998;9.832;2023-05-10T04:03:44;2.10;;;1.20;;
38123;SDS011;23934;47.998;9.832;2023-05-10T04:06:10;2.30;;;1.60;;
38123;SDS011;23934;47.998;9.832;2023-05-10T04:08:36;5.30;;;1.63;;
38123;SDS011;23934;47.998;9.832;2023-05-10T04:11:06;2.40;;;1.40;;
38123;SDS011;23934;47.998;9.832;2023-05-10T04:13:33;4.82;;;1.67;;
38123;SDS011;23934;47.998;9.832;2023-05-10T04:15:59;3.53;;;1.88;;
38123;SDS011;23934;47.998;9.832;2023-05-10T04:18:25;4.43;;;1.75;;
38123;SDS011;23934;47.998;9.832;2023-05-10T04:20:51;4.28;;;1.77;;
38123;SDS011;23934;47.998;9.832;2023-05-10T04:23:17;3.67;;;1.90;;
38123;SDS011;23934;47.998;9.832;2023-05-10T04:25:43;5.00;;;2.40;;
38123;SDS011;23934;47.998;9.832;2023-05-10T04:28:09;5.28;;;3.05;;
38123;SDS011;23934;47.998;9.832;2023-05-10T04:30:35;5.13;;;2.72;;
38123;SDS011;23934;47.998;9.832;2023-05-10T04:33:01;4.00;;;2.20;;
38123;SDS011;23934;47.998;9.832;2023-05-10T04:35:27;8.23;;;2.78;;
38123;SDS011;23934;47.998;9.832;2023-05-10T04:37:53;5.65;;;2.38;;
38123;SDS011;23934;47.998;9.832;2023-05-10T04:40:19;5.47;;;2.95;;
38123;SDS011;23934;47.998;9.832;2023-05-10T04:42:45;6.88;;;2.28;;
38123;SDS011;23934;47.998;9.832;2023-05-10T04:45:11;11.60;;;3.53;;
38123;SDS011;23934;47.998;9.832;2023-05-10T04:47:39;5.25;;;2.80;;
38123;SDS011;23934;47.998;9.832;2023-05-10T04:50:05;7.80;;;2.80;;
38123;SDS011;23934;47.998;9.832;2023-05-10T04:52:32;10.27;;;2.45;;
38123;SDS011;23934;47.998;9.832;2023-05-10T04:54:58;7.38;;;2.85;;
38123;SDS011;23934;47.998;9.832;2023-05-10T04:57:24;5.50;;;2.00;;
38123;SDS011;23934;47.998;9.832;2023-05-10T04:59:50;4.18;;;1.83;;
38123;SDS011;23934;47.998;9.832;2023-05-10T05:02:16;6.47;;;2.40;;
38123;SDS011;23934;47.998;9.832;2023-05-10T05:04:41;4.03;;;2.03;;
38123;SDS011;23934;47.998;9.832;2023-05-10T05:07:08;4.53;;;1.95;;
38123;SDS011;23934;47.998;9.832;2023-05-10T05:09:34;3.60;;;2.00;;
38123;SDS011;23934;47.998;9.832;2023-05-10T05:12:00;4.28;;;2.58;;
38123;SDS011;23934;47.998;9.832;2023-05-10T05:14:26;7.93;;;3.70;;
38123;SDS011;23934;47.998;9.832;2023-05-10T05:16:52;6.63;;;2.30;;
38123;SDS011;23934;47.998;9.832;2023-05-10T05:19:18;10.48;;;3.58;;
38123;SDS011;23934;47.998;9.832;2023-05-10T05:21:44;36.60;;;10.48;;
38123;SDS011;23934;47.998;9.832;2023-05-10T05:24:10;111.60;;;29.33;;
38123;SDS011;23934;47.998;9.832;2023-05-10T05:26:37;66.05;;;21.55;;
38123;SDS011;23934;47.998;9.832;2023-05-10T05:29:03;23.13;;;8.23;;
38123;SDS011;23934;47.998;9.832;2023-05-10T05:31:29;29.13;;;10.18;;
38123;SDS011;23934;47.998;9.832;2023-05-10T05:33:55;46.65;;;14.43;;
38123;SDS011;23934;47.998;9.832;2023-05-10T05:36:21;80.65;;;24.92;;
38123;SDS011;23934;47.998;9.832;2023-05-10T05:38:47;54.05;;;19.08;;
38123;SDS011;23934;47.998;9.832;2023-05-10T05:41:13;34.25;;;11.77;;
38123;SDS011;23934;47.998;9.832;2023-05-10T05:43:39;6.47;;;3.55;;
38123;SDS011;23934;47.998;9.832;2023-05-10T05:46:05;5.35;;;2.75;;
38123;SDS011;23934;47.998;9.832;2023-05-10T05:48:31;4.72;;;2.67;;
38123;SDS011;23934;47.998;9.832;2023-05-10T05:50:57;6.35;;;3.00;;
38123;SDS011;23934;47.998;9.832;2023-05-10T05:53:23;4.35;;;2.65;;
38123;SDS011;23934;47.998;9.832;2023-05-10T05:55:56;8.38;;;3.17;;
38123;SDS011;23934;47.998;9.832;2023-05-10T05:58:22;5.20;;;3.10;;
38123;SDS011;23934;47.998;9.832;2023-05-10T06:00:49;6.95;;;3.22;;
38123;SDS011;23934;47.998;9.832;2023-05-10T06:03:15;3.83;;;2.30;;
38123;SDS011;23934;47.998;9.832;2023-05-10T06:05:41;7.18;;;2.92;;
38123;SDS011;23934;47.998;9.832;2023-05-10T06:08:07;4.57;;;2.50;;
38123;SDS011;23934;47.998;9.832;2023-05-10T06:10:33;3.65;;;2.17;;
38123;SDS011;23934;47.998;9.832;2023-05-10T06:12:59;5.05;;;2.22;;
38123;SDS011;23934;47.998;9.832;2023-05-10T06:15:25;8.80;;;3.60;;
38123;SDS011;23934;47.998;9.832;2023-05-10T06:17:51;3.83;;;2.72;;
38123;SDS011;23934;47.998;9.832;2023-05-10T06:20:17;3.88;;;2.30;;
38123;SDS011;23934;47.998;9.832;2023-05-10T06:22:43;4.70;;;2.53;;
38123;SDS011;23934;47.998;9.832;2023-05-10T06:25:09;3.20;;;2.08;;
38123;SDS011;23934;47.998;9.832;2023-05-10T06:27:36;5.90;;;2.78;;
38123;SDS011;23934;47.998;9.832;2023-05-10T06:30:02;3.08;;;1.90;;
38123;SDS011;23934;47.998;9.832;2023-05-10T06:32:28;4.65;;;1.58;;
38123;SDS011;23934;47.998;9.832;2023-05-10T06:34:54;5.72;;;2.20;;
38123;SDS011;23934;47.998;9.832;2023-05-10T06:37:20;3.88;;;1.83;;
38123;SDS011;23934;47.998;9.832;2023-05-10T06:39:46;6.18;;;1.80;;
38123;SDS011;23934;47.998;9.832;2023-05-10T06:42:12;5.13;;;2.10;;
38123;SDS011;23934;47.998;9.832;2023-05-10T06:44:38;1.77;;;1.23;;
38123;SDS011;23934;47.998;9.832;2023-05-10T06:47:04;2.80;;;1.40;;
38123;SDS011;23934;47.998;9.832;2023-05-10T06:49:30;2.40;;;1.42;;
38123;SDS011;23934;47.998;9.832;2023-05-10T06:51:56;2.88;;;1.60;;
38123;SDS011;23934;47.998;9.832;2023-05-10T06:54:22;2.50;;;1.30;;
38123;SDS011;23934;47.998;9.832;2023-05-10T06:56:48;5.50;;;1.40;;
38123;SDS011;23934;47.998;9.832;2023-05-10T06:59:14;3.08;;;1.55;;
38123;SDS011;23934;47.998;9.832;2023-05-10T07:01:41;1.65;;;1.25;;
38123;SDS011;23934;47.998;9.832;2023-05-10T07:04:07;1.52;;;1.35;;
38123;SDS011;23934;47.998;9.832;2023-05-10T07:06:33;3.30;;;1.30;;
38123;SDS011;23934;47.998;9.832;2023-05-10T07:08:59;2.53;;;1.40;;
38123;SDS011;23934;47.998;9.832;2023-05-10T07:11:26;2.17;;;1.02;;
38123;SDS011;23934;47.998;9.832;2023-05-10T07:13:51;2.22;;;1.63;;
38123;SDS011;23934;47.998;9.832;2023-05-10T07:16:17;1.95;;;1.50;;
38123;SDS011;23934;47.998;9.832;2023-05-10T07:18:43;2.05;;;1.33;;
38123;SDS011;23934;47.998;9.832;2023-05-10T07:21:09;1.73;;;1.10;;
38123;SDS011;23934;47.998;9.832;2023-05-10T07:23:35;2.38;;;1.42;;
38123;SDS011;23934;47.998;9.832;2023-05-10T07:26:01;4.18;;;1.20;;
38123;SDS011;23934;47.998;9.832;2023-05-10T07:28:27;2.15;;;1.33;;
38123;SDS011;23934;47.998;9.832;2023-05-10T07:30:53;2.90;;;1.60;;
38123;SDS011;23934;47.998;9.832;2023-05-10T07:33:19;4.43;;;1.52;;
38123;SDS011;23934;47.998;9.832;2023-05-10T07:35:45;2.90;;;1.60;;
38123;SDS011;23934;47.998;9.832;2023-05-10T07:38:11;3.85;;;1.75;;
38123;SDS011;23934;47.998;9.832;2023-05-10T07:40:38;2.30;;;1.63;;
38123;SDS011;23934;47.998;9.832;2023-05-10T07:43:04;4.28;;;1.58;;
38123;SDS011;23934;47.998;9.832;2023-05-10T07:45:30;2.33;;;1.58;;
38123;SDS011;23934;47.998;9.832;2023-05-10T07:47:56;1.63;;;1.23;;
38123;SDS011;23934;47.998;9.832;2023-05-10T07:50:22;1.98;;;1.42;;
38123;SDS011;23934;47.998;9.832;2023-05-10T07:52:48;2.13;;;1.52;;
38123;SDS011;23934;47.998;9.832;2023-05-10T07:55:14;2.80;;;1.35;;
38123;SDS011;23934;47.998;9.832;2023-05-10T07:57:42;4.28;;;1.30;;
38123;SDS011;23934;47.998;9.832;2023-05-10T08:00:08;3.72;;;1.40;;
38123;SDS011;23934;47.998;9.832;2023-05-10T08:02:35;6.15;;;1.38;;
38123;SDS011;23934;47.998;9.832;2023-05-10T08:05:01;3.08;;;1.35;;
38123;SDS011;23934;47.998;9.832;2023-05-10T08:07:27;4.50;;;1.45;;
38123;SDS011;23934;47.998;9.832;2023-05-10T08:09:53;4.35;;;1.80;;
38123;SDS011;23934;47.998;9.832;2023-05-10T08:12:19;4.03;;;1.20;;
38123;SDS011;23934;47.998;9.832;2023-05-10T08:14:45;3.13;;;1.73;;
38123;SDS011;23934;47.998;9.832;2023-05-10T08:17:11;2.83;;;1.58;;
38123;SDS011;23934;47.998;9.832;2023-05-10T08:19:36;2.33;;;1.45;;
38123;SDS011;23934;47.998;9.832;2023-05-10T08:22:02;1.90;;;1.08;;
38123;SDS011;23934;47.998;9.832;2023-05-10T08:24:28;2.42;;;1.60;;
38123;SDS011;23934;47.998;9.832;2023-05-10T08:26:54;1.98;;;1.50;;
38123;SDS011;23934;47.998;9.832;2023-05-10T08:29:20;1.35;;;1.23;;
38123;SDS011;23934;47.998;9.832;2023-05-10T08:31:46;4.40;;;1.50;;
38123;SDS011;23934;47.998;9.832;2023-05-10T08:34:12;1.88;;;1.48;;
38123;SDS011;23934;47.998;9.832;2023-05-10T08:36:38;2.88;;;1.40;;
38123;SDS011;23934;47.998;9.832;2023-05-10T08:39:04;2.67;;;1.50;;
38123;SDS011;23934;47.998;9.832;2023-05-10T08:41:31;3.50;;;1.60;;
38123;SDS011;23934;47.998;9.832;2023-05-10T08:43:58;3.92;;;1.60;;
38123;SDS011;23934;47.998;9.832;2023-05-10T08:46:26;4.72;;;1.85;;
38123;SDS011;23934;47.998;9.832;2023-05-10T08:48:52;2.13;;;1.40;;
38123;SDS011;23934;47.998;9.832;2023-05-10T08:51:21;2.22;;;1.40;;
38123;SDS011;23934;47.998;9.832;2023-05-10T08:53:48;5.82;;;1.40;;
38123;SDS011;23934;47.998;9.832;2023-05-10T08:56:15;1.42;;;1.33;;
38123;SDS011;23934;47.998;9.832;2023-05-10T08:58:42;1.75;;;1.08;;
38123;SDS011;23934;47.998;9.832;2023-05-10T09:01:08;3.67;;;1.10;;
38123;SDS011;23934;47.998;9.832;2023-05-10T09:03:35;2.63;;;1.10;;
38123;SDS011;23934;47.998;9.832;2023-05-10T09:06:04;3.63;;;1.20;;
38123;SDS011;23934;47.998;9.832;2023-05-10T09:08:30;5.30;;;1.27;;
38123;SDS011;23934;47.998;9.832;2023-05-10T09:10:56;1.95;;;1.10;;
38123;SDS011;23934;47.998;9.832;2023-05-10T09:13:23;2.45;;;1.50;;
38123;SDS011;23934;47.998;9.832;2023-05-10T09:15:49;1.48;;;1.30;;
38123;SDS011;23934;47.998;9.832;2023-05-10T09:18:16;1.27;;;0.95;;
38123;SDS011;23934;47.998;9.832;2023-05-10T09:20:41;3.70;;;1.33;;
38123;SDS011;23934;47.998;9.832;2023-05-10T09:23:08;2.90;;;1.10;;
38123;SDS011;23934;47.998;9.832;2023-05-10T09:25:34;1.15;;;0.90;;
38123;SDS011;23934;47.998;9.832;2023-05-10T09:28:00;1.92;;;1.30;;
38123;SDS011;23934;47.998;9.832;2023-05-10T09:30:27;3.30;;;1.58;;
38123;SDS011;23934;47.998;9.832;2023-05-10T09:32:53;3.58;;;1.38;;
38123;SDS011;23934;47.998;9.832;2023-05-10T09:35:20;2.70;;;1.42;;
38123;SDS011;23934;47.998;9.832;2023-05-10T09:37:48;1.80;;;1.30;;
38123;SDS011;23934;47.998;9.832;2023-05-10T09:40:18;1.63;;;1.17;;
38123;SDS011;23934;47.998;9.832;2023-05-10T09:45:20;1.60;;;0.90;;
38123;SDS011;23934;47.998;9.832;2023-05-10T09:47:46;2.42;;;1.15;;
38123;SDS011;23934;47.998;9.832;2023-05-10T09:50:12;2.35;;;1.38;;
38123;SDS011;23934;47.998;9.832;2023-05-10T09:52:46;6.25;;;1.38;;
38123;SDS011;23934;47.998;9.832;2023-05-10T09:55:12;3.03;;;1.70;;
38123;SDS011;23934;47.998;9.832;2023-05-10T09:57:38;3.00;;;1.52;;
38123;SDS011;23934;47.998;9.832;2023-05-10T10:00:04;3.38;;;1.67;;
38123;SDS011;23934;47.998;9.832;2023-05-10T10:02:31;3.80;;;2.00;;
38123;SDS011;23934;47.998;9.832;2023-05-10T10:04:57;9.02;;;1.90;;
38123;SDS011;23934;47.998;9.832;2023-05-10T10:07:24;3.00;;;1.67;;
38123;SDS011;23934;47.998;9.832;2023-05-10T10:09:50;3.80;;;1.60;;
38123;SDS011;23934;47.998;9.832;2023-05-10T10:12:16;3.60;;;1.52;;
38123;SDS011;23934;47.998;9.832;2023-05-10T10:14:42;2.30;;;1.50;;
38123;SDS011;23934;47.998;9.832;2023-05-10T10:17:08;2.42;;;1.75;;
38123;SDS011;23934;47.998;9.832;2023-05-10T10:19:35;1.67;;;1.00;;
38123;SDS011;23934;47.998;9.832;2023-05-10T10:22:01;2.33;;;1.38;;
38123;SDS011;23934;47.998;9.832;2023-05-10T10:24:27;1.73;;;1.38;;
38123;SDS011;23934;47.998;9.832;2023-05-10T10:26:54;3.67;;;0.45;;
38123;SDS011;23934;47.998;9.832;2023-05-10T10:29:33;2.33;;;0.57;;
38123;SDS011;23934;47.998;9.832;2023-05-10T10:34:27;3.20;;;0.73;;
38123;SDS011;23934;47.998;9.832;2023-05-10T10:36:54;0.80;;;0.80;;
38123;SDS011;23934;47.998;9.832;2023-05-10T10:39:21;9.05;;;1.02;;
38123;SDS011;23934;47.998;9.832;2023-05-10T10:41:54;1.40;;;0.65;;
38123;SDS011;23934;47.998;9.832;2023-05-10T10:52:24;1.05;;;0.30;;
38123;SDS011;23934;47.998;9.832;2023-05-10T11:02:46;0.00;;;0.00;;
38123;SDS011;23934;47.998;9.832;2023-05-10T11:05:23;0.00;;;0.00;;
38123;SDS011;23934;47.998;9.832;2023-05-10T11:07:56;0.00;;;0.00;;
38123;SDS011;23934;47.998;9.832;2023-05-10T11:10:23;0.00;;;0.00;;
38123;SDS011;23934;47.998;9.832;2023-05-10T11:13:05;0.00;;;0.00;;
38123;SDS011;23934;47.998;9.832;2023-05-10T11:15:32;0.00;;;0.00;;
38123;SDS011;23934;47.998;9.832;2023-05-10T11:17:59;0.00;;;0.00;;
38123;SDS011;23934;47.998;9.832;2023-05-10T11:20:28;0.00;;;0.00;;
38123;SDS011;23934;47.998;9.832;2023-05-10T11:23:00;0.00;;;0.00;;
38123;SDS011;23934;47.998;9.832;2023-05-10T11:25:40;0.45;;;0.45;;
38123;SDS011;23934;47.998;9.832;2023-05-10T11:28:06;0.52;;;0.52;;
38123;SDS011;23934;47.998;9.832;2023-05-10T11:30:33;0.22;;;0.22;;
38123;SDS011;23934;47.998;9.832;2023-05-10T11:32:58;0.00;;;0.00;;
38123;SDS011;23934;47.998;9.832;2023-05-10T11:35:27;0.00;;;0.00;;
38123;SDS011;23934;47.998;9.832;2023-05-10T11:37:53;0.00;;;0.00;;
38123;SDS011;23934;47.998;9.832;2023-05-10T11:40:21;0.00;;;0.00;;
38123;SDS011;23934;47.998;9.832;2023-05-10T11:42:49;0.00;;;0.00;;
38123;SDS011;23934;47.998;9.832;2023-05-10T11:45:15;0.00;;;0.00;;
38123;SDS011;23934;47.998;9.832;2023-05-10T11:47:41;0.00;;;0.00;;
38123;SDS011;23934;47.998;9.832;2023-05-10T11:50:08;0.00;;;0.00;;
38123;SDS011;23934;47.998;9.832;2023-05-10T11:52:37;0.00;;;0.00;;
38123;SDS011;23934;47.998;9.832;2023-05-10T11:55:03;0.00;;;0.00;;
38123;SDS011;23934;47.998;9.832;2023-05-10T11:57:30;0.00;;;0.00;;
38123;SDS011;23934;47.998;9.832;2023-05-10T11:59:56;0.00;;;0.00;;
38123;SDS011;23934;47.998;9.832;2023-05-10T12:02:22;0.00;;;0.00;;
38123;SDS011;23934;47.998;9.832;2023-05-10T12:04:49;0.00;;;0.00;;
38123;SDS011;23934;47.998;9.832;2023-05-10T12:07:15;0.20;;;0.13;;
38123;SDS011;23934;47.998;9.832;2023-05-10T12:09:44;0.00;;;0.00;;
38123;SDS011;23934;47.998;9.832;2023-05-10T12:12:15;0.00;;;0.00;;
38123;SDS011;23934;47.998;9.832;2023-05-10T12:14:41;0.03;;;0.03;;
38123;SDS011;23934;47.998;9.832;2023-05-10T12:17:11;1.02;;;0.98;;
38123;SDS011;23934;47.998;9.832;2023-05-10T12:19:38;0.00;;;0.00;;
38123;SDS011;23934;47.998;9.832;2023-05-10T12:22:05;0.00;;;0.00;;
38123;SDS011;23934;47.998;9.832;2023-05-10T12:24:33;0.00;;;0.00;;
38123;SDS011;23934;47.998;9.832;2023-05-10T12:26:59;0.00;;;0.00;;
38123;SDS011;23934;47.998;9.832;2023-05-10T12:29:25;0.00;;;0.00;;
38123;SDS011;23934;47.998;9.832;2023-05-10T12:31:58;0.00;;;0.00;;
38123;SDS011;23934;47.998;9.832;2023-05-10T12:34:30;0.00;;;0.00;;
38123;SDS011;23934;47.998;9.832;2023-05-10T12:36:56;0.00;;;0.00;;
38123;SDS011;23934;47.998;9.832;2023-05-10T12:39:23;0.00;;;0.00;;
38123;SDS011;23934;47.998;9.832;2023-05-10T12:41:48;0.00;;;0.00;;
38123;SDS011;23934;47.998;9.832;2023-05-10T12:44:14;0.00;;;0.00;;
38123;SDS011;23934;47.998;9.832;2023-05-10T12:46:40;0.00;;;0.00;;
38123;SDS011;23934;47.998;9.832;2023-05-10T12:49:06;0.00;;;0.00;;
38123;SDS011;23934;47.998;9.832;2023-05-10T12:51:32;0.20;;;0.20;;
38123;SDS011;23934;47.998;9.832;2023-05-10T12:53:58;0.00;;;0.00;;
38123;SDS011;23934;47.998;9.832;2023-05-10T12:56:24;0.00;;;0.00;;
38123;SDS011;23934;47.998;9.832;2023-05-10T12:58:50;0.00;;;0.00;;
38123;SDS011;23934;47.998;9.832;2023-05-10T13:01:16;0.17;;;0.17;;
38123;SDS011;23934;47.998;9.832;2023-05-10T13:03:42;0.00;;;0.00;;
38123;SDS011;23934;47.998;9.832;2023-05-10T13:06:08;0.00;;;0.00;;
38123;SDS011;23934;47.998;9.832;2023-05-10T13:08:34;0.00;;;0.00;;
38123;SDS011;23934;47.998;9.832;2023-05-10T13:11:01;0.00;;;0.00;;
38123;SDS011;23934;47.998;9.832;2023-05-10T13:13:27;0.00;;;0.00;;
38123;SDS011;23934;47.998;9.832;2023-05-10T13:15:53;0.00;;;0.00;;
38123;SDS011;23934;47.998;9.832;2023-05-10T13:18:19;1.08;;;0.85;;
38123;SDS011;23934;47.998;9.832;2023-05-10T13:20:45;0.10;;;0.10;;
38123;SDS011;23934;47.998;9.832;2023-05-10T13:23:11;0.08;;;0.08;;
38123;SDS011;23934;47.998;9.832;2023-05-10T13:25:37;0.00;;;0.00;;
38123;SDS011;23934;47.998;9.832;2023-05-10T13:28:04;0.00;;;0.00;;
38123;SDS011;23934;47.998;9.832;2023-05-10T13:30:29;2.17;;;1.17;;
38123;SDS011;23934;47.998;9.832;2023-05-10T13:32:55;0.00;;;0.00;;
38123;SDS011;23934;47.998;9.832;2023-05-10T13:35:21;0.00;;;0.00;;
38123;SDS011;23934;47.998;9.832;2023-05-10T13:37:47;0.00;;;0.00;;
38123;SDS011;23934;47.998;9.832;2023-05-10T13:40:13;0.00;;;0.00;;
38123;SDS011;23934;47.998;9.832;2023-05-10T13:42:41;0.00;;;0.00;;
38123;SDS011;23934;47.998;9.832;2023-05-10T13:45:08;0.00;;;0.00;;
38123;SDS011;23934;47.998;9.832;2023-05-10T13:47:34;0.00;;;0.00;;
38123;SDS011;23934;47.998;9.832;2023-05-10T13:50:01;0.00;;;0.00;;
38123;SDS011;23934;47.998;9.832;2023-05-10T13:52:28;0.10;;;0.10;;
38123;SDS011;23934;47.998;9.832;2023-05-10T13:54:54;0.00;;;0.00;;
38123;SDS011;23934;47.998;9.832;2023-05-10T13:57:20;0.00;;;0.00;;
38123;SDS011;23934;47.998;9.832;2023-05-10T13:59:46;0.80;;;0.80;;
38123;SDS011;23934;47.998;9.832;2023-05-10T14:02:13;0.10;;;0.10;;
38123;SDS011;23934;47.998;9.832;2023-05-10T14:04:39;4.03;;;1.00;;
38123;SDS011;23934;47.998;9.832;2023-05-10T14:07:05;0.00;;;0.00;;
38123;SDS011;23934;47.998;9.832;2023-05-10T14:09:31;0.00;;;0.00;;
38123;SDS011;23934;47.998;9.832;2023-05-10T14:11:57;0.00;;;0.00;;
38123;SDS011;23934;47.998;9.832;2023-05-10T14:14:23;2.95;;;0.95;;
38123;SDS011;23934;47.998;9.832;2023-05-10T14:16:49;5.03;;;1.55;;
38123;SDS011;23934;47.998;9.832;2023-05-10T14:19:16;19.80;;;3.58;;
38123;SDS011;23934;47.998;9.832;2023-05-10T14:21:42;0.00;;;0.00;;
38123;SDS011;23934;47.998;9.832;2023-05-10T14:24:08;0.17;;;0.17;;
38123;SDS011;23934;47.998;9.832;2023-05-10T14:26:35;0.00;;;0.00;;
38123;SDS011;23934;47.998;9.832;2023-05-10T14:29:01;0.00;;;0.00;;
38123;SDS011;23934;47.998;9.832;2023-05-10T14:31:27;0.00;;;0.00;;
38123;SDS011;23934;47.998;9.832;2023-05-10T14:33:55;0.00;;;0.00;;
38123;SDS011;23934;47.998;9.832;2023-05-10T14:36:21;0.00;;;0.00;;
38123;SDS011;23934;47.998;9.832;2023-05-10T14:38:47;0.00;;;0.00;;
38123;SDS011;23934;47.998;9.832;2023-05-10T14:41:13;0.00;;;0.00;;
38123;SDS011;23934;47.998;9.832;2023-05-10T14:43:40;0.47;;;0.47;;
38123;SDS011;23934;47.998;9.832;2023-05-10T14:46:06;0.00;;;0.00;;
38123;SDS011;23934;47.998;9.832;2023-05-10T14:48:32;0.00;;;0.00;;
38123;SDS011;23934;47.998;9.832;2023-05-10T14:50:58;0.00;;;0.00;;
38123;SDS011;23934;47.998;9.832;2023-05-10T14:53:24;0.00;;;0.00;;
38123;SDS011;23934;47.998;9.832;2023-05-10T14:55:50;0.00;;;0.00;;
38123;SDS011;23934;47.998;9.832;2023-05-10T14:58:16;0.00;;;0.00;;
38123;SDS011;23934;47.998;9.832;2023-05-10T15:00:42;0.00;;;0.00;;
38123;SDS011;23934;47.998;9.832;2023-05-10T15:03:08;0.00;;;0.00;;
38123;SDS011;23934;47.998;9.832;2023-05-10T15:05:34;0.00;;;0.00;;
38123;SDS011;23934;47.998;9.832;2023-05-10T15:08:02;0.00;;;0.00;;
38123;SDS011;23934;47.998;9.832;2023-05-10T15:10:28;0.00;;;0.00;;
38123;SDS011;23934;47.998;9.832;2023-05-10T15:12:54;0.00;;;0.00;;
38123;SDS011;23934;47.998;9.832;2023-05-10T15:15:20;0.00;;;0.00;;
38123;SDS011;23934;47.998;9.832;2023-05-10T15:17:47;0.00;;;0.00;;
38123;SDS011;23934;47.998;9.832;2023-05-10T15:20:13;0.03;;;0.03;;
38123;SDS011;23934;47.998;9.832;2023-05-10T15:22:39;0.00;;;0.00;;